Time;durP1;ratioP1;P1;durP2;ratioP2;P2;SDS_P1;SDS_P2;PMS_P1;PMS_P2;Temp;Humidity;BMP_temperature;BMP_pressure;BME280_temperature;BME280_humidity;BME280_pressure;Samples;Min_cycle;Max_cycle;Signal;HPM_P1;HPM_P2
2022/10/22 00:01:04;;;;;;;;;;;16.90;72.80;;;12.69;100.00;95434.66;4999386;28;19919;-47
2022/10/22 00:03:33;;;;;;;;;;;16.80;72.70;;;12.65;100.00;95448.84;5010379;28;19909;-47
2022/10/22 00:06:08;;;;;;;;;;;16.80;72.80;;;12.44;100.00;95438.34;5008402;28;19951;-52
2022/10/22 00:08:33;;;;;;;;;;;16.70;72.80;;;12.42;100.00;95450.38;5010703;28;20381;-48
2022/10/22 00:11:19;;;;;;;;;;;16.70;72.90;;;12.52;100.00;95438.81;4982957;28;19953;-49
2022/10/22 00:13:48;;;;;;;;;;;16.70;73.10;;;12.53;100.00;95449.19;4977787;28;20444;-50
2022/10/22 00:16:17;;;;;;;;;;;16.60;73.10;;;12.58;100.00;95464.41;5005234;28;20177;-49
2022/10/22 00:18:43;;;;;;;;;;;16.60;73.10;;;12.57;100.00;95466.28;4986553;28;19909;-49
2022/10/22 00:21:09;;;;;;;;;;;16.70;73.20;;;12.55;100.00;95464.97;5011503;28;19988;-50
2022/10/22 00:23:48;;;;;;;;;;;16.60;73.10;;;12.56;100.00;95475.34;5000882;28;20000;-46
2022/10/22 00:26:23;;;;;;;;;;;16.60;73.10;;;12.58;100.00;95489.25;4993387;28;19956;-48
2022/10/22 00:28:55;;;;;;;;;;;16.70;73.20;;;12.58;100.00;95501.81;5001780;28;19909;-46
2022/10/22 00:31:20;;;;;;;;;;;16.70;73.20;;;12.58;100.00;95489.25;5009251;28;20317;-47
2022/10/22 00:33:47;;;;;;;;;;;16.70;73.20;;;12.55;100.00;95503.16;5010586;28;19909;-50
2022/10/22 00:36:19;;;;;;;;;;;16.70;73.20;;;12.56;100.00;95506.63;4990867;28;19913;-46
2022/10/22 00:38:47;;;;;;;;;;;16.70;73.20;;;12.55;100.00;95497.81;4993503;28;20016;-48
2022/10/22 00:41:13;;;;;;;;;;;16.70;73.20;;;12.58;100.00;95502.59;5003279;28;19913;-47
2022/10/22 00:44:04;;;;;;;;;;;16.70;73.20;;;12.60;100.00;95513.81;5009791;28;19908;-49
2022/10/22 00:46:36;;;;;;;;;;;16.70;73.20;;;12.59;100.00;95517.56;4998824;28;19909;-49
2022/10/22 00:49:05;;;;;;;;;;;16.70;73.20;;;12.60;100.00;95523.72;4989348;28;19940;-48
2022/10/22 00:51:34;;;;;;;;;;;16.80;73.30;;;12.61;100.00;95519.97;4993561;28;20375;-47
2022/10/22 00:54:08;;;;;;;;;;;16.80;73.30;;;12.60;100.00;95513.81;5003331;28;19916;-48
2022/10/22 00:56:37;;;;;;;;;;;16.80;73.20;;;12.61;100.00;95523.44;5004325;28;20020;-49
2022/10/22 00:59:03;;;;;;;;;;;16.80;73.20;;;12.58;100.00;95523.97;4979828;28;19909;-50
2022/10/22 01:01:31;;;;;;;;;;;16.80;73.30;;;12.60;100.00;95523.72;4994574;28;20013;-49
2022/10/22 01:03:58;;;;;;;;;;;16.80;73.20;;;12.59;100.00;95524.78;4998441;28;19921;-50
2022/10/22 01:06:29;;;;;;;;;;;16.70;73.20;;;12.63;100.00;95533.81;4982263;28;20286;-51
2022/10/22 01:09:17;;;;;;;;;;;16.70;73.20;;;12.63;100.00;95531.16;4984263;28;19914;-49
2022/10/22 01:12:12;;;;;;;;;;;16.80;73.30;;;12.64;100.00;95516.72;5006349;28;19909;-47
2022/10/22 01:15:38;;;;;;;;;;;16.70;73.20;;;12.64;100.00;95508.72;4988791;28;19913;-47
2022/10/22 01:18:17;;;;;;;;;;;16.80;73.20;;;12.63;100.00;95493.72;4971274;28;19913;-48
2022/10/22 01:21:02;;;;;;;;;;;16.70;73.20;;;12.64;100.00;95500.69;5014278;28;19917;-51
2022/10/22 01:24:18;;;;;;;;;;;16.70;73.20;;;12.63;100.00;95499.91;4999173;28;19913;-50
2022/10/22 01:27:40;;;;;;;;;;;16.70;73.20;;;12.60;100.00;95484.44;5013597;28;19913;-47
2022/10/22 01:30:14;;;;;;;;;;;16.70;73.20;;;12.62;100.00;95484.13;5004754;28;19924;-47
2022/10/22 01:32:51;;;;;;;;;;;16.70;73.20;;;12.57;100.00;95466.28;5013577;28;19959;-49
2022/10/22 01:35:26;;;;;;;;;;;16.70;73.20;;;12.55;100.00;95465.75;5004841;28;19913;-47
2022/10/22 01:37:58;;;;;;;;;;;16.70;74.00;;;12.58;100.00;95457.19;5013337;28;20003;-51
2022/10/22 01:40:27;;;;;;;;;;;16.70;73.30;;;12.61;100.00;95453.16;4987304;28;19956;-50
2022/10/22 01:42:59;;;;;;;;;;;16.70;73.40;;;12.65;100.00;95451.50;4991950;28;19963;-47
2022/10/22 01:45:28;;;;;;;;;;;16.70;73.50;;;12.64;100.00;95442.69;5012702;28;19948;-48
2022/10/22 01:48:46;;;;;;;;;;;16.70;73.50;;;12.69;100.00;95455.22;5011575;28;19915;-48
2022/10/22 01:52:08;;;;;;;;;;;16.70;73.50;;;12.71;100.00;95456.53;5012819;28;20004;-48
2022/10/22 01:55:31;;;;;;;;;;;16.80;73.60;;;12.72;100.00;95468.00;5008781;28;19909;-47
2022/10/22 01:58:19;;;;;;;;;;;16.80;73.60;;;12.72;100.00;95471.50;4981257;28;20609;-46
2022/10/22 02:01:12;;;;;;;;;;;16.80;73.60;;;12.74;100.00;95479.22;4982936;28;19924;-47
2022/10/22 02:03:57;;;;;;;;;;;16.80;73.50;;;12.78;100.00;95476.78;4967353;28;19913;-48
2022/10/22 02:06:26;;;;;;;;;;;16.90;73.60;;;12.79;100.00;95476.53;4976691;28;19913;-47
2022/10/22 02:08:58;;;;;;;;;;;16.90;73.50;;;12.80;100.00;95478.09;4992884;28;19936;-47
2022/10/22 02:11:23;;;;;;;;;;;16.90;73.30;;;12.79;100.00;95468.50;4973820;28;19956;-47
2022/10/22 02:13:57;;;;;;;;;;;17.00;73.40;;;12.81;100.00;95478.91;5009011;28;20319;-50
2022/10/22 02:16:56;;;;;;;;;;;17.00;73.40;;;12.82;100.00;95489.31;4986853;28;20369;-47
2022/10/22 02:19:37;;;;;;;;;;;17.00;73.30;;;12.83;100.00;95485.56;4960858;28;19909;-48
2022/10/22 02:22:07;;;;;;;;;;;17.00;73.40;;;12.84;100.00;95484.47;4990942;28;20341;-47
2022/10/22 02:24:35;;;;;;;;;;;17.00;73.30;;;12.85;100.00;95482.59;4992682;28;19936;-48
2022/10/22 02:27:34;;;;;;;;;;;17.10;74.20;;;12.86;100.00;95484.22;4988532;28;19913;-49
2022/10/22 02:30:11;;;;;;;;;;;17.10;73.40;;;12.87;100.00;95488.47;4977630;28;19932;-48
2022/10/22 02:33:36;;;;;;;;;;;17.10;73.30;;;12.84;100.00;95489.81;4992618;28;19916;-46
2022/10/22 02:36:08;;;;;;;;;;;17.10;73.30;;;12.90;100.00;95503.94;4975222;28;19937;-46
2022/10/22 02:38:35;;;;;;;;;;;17.00;73.30;;;12.89;100.00;95489.78;4992483;28;20348;-48
2022/10/22 02:41:02;;;;;;;;;;;17.00;73.40;;;12.92;100.00;95499.13;4988711;28;19920;-47
2022/10/22 02:43:28;;;;;;;;;;;17.10;73.50;;;12.87;100.00;95499.97;4975484;28;19913;-50
2022/10/22 02:45:54;;;;;;;;;;;17.10;73.40;;;12.86;100.00;95493.03;4990134;28;19916;-51
2022/10/22 02:48:20;;;;;;;;;;;17.00;73.30;;;12.88;100.00;95493.56;4981972;28;19971;-47
2022/10/22 02:50:46;;;;;;;;;;;17.00;73.30;;;12.83;100.00;95493.59;4992051;28;19955;-49
2022/10/22 02:53:14;;;;;;;;;;;17.00;73.30;;;12.78;100.00;95501.63;4981618;28;19991;-48
2022/10/22 02:55:49;;;;;;;;;;;17.00;73.40;;;12.81;100.00;95503.75;4983879;28;19909;-49
2022/10/22 02:58:15;;;;;;;;;;;17.00;73.40;;;12.83;100.00;95496.25;5030193;22;20200;-50
2022/10/22 03:00:48;;;;;;;;;;;16.90;73.30;;;12.85;100.00;95503.97;5023325;28;20264;-52
2022/10/22 03:03:19;;;;;;;;;;;16.90;73.40;;;12.85;100.00;95514.66;5017972;28;19920;-52
2022/10/22 03:05:45;;;;;;;;;;;16.90;73.50;;;12.81;100.00;95516.31;5014670;28;19913;-47
2022/10/22 03:08:13;;;;;;;;;;;16.90;73.40;;;12.81;100.00;95519.00;5032467;28;19916;-55
2022/10/22 03:10:45;;;;;;;;;;;16.90;73.50;;;12.81;100.00;95516.31;5006106;28;19909;-54
2022/10/22 03:13:11;;;;;;;;;;;16.90;73.60;;;12.82;100.00;95523.28;5014011;28;19913;-52
2022/10/22 03:15:43;;;;;;;;;;;16.90;73.60;;;12.83;100.00;95527.53;5030811;28;20492;-50
2022/10/22 03:18:12;;;;;;;;;;;16.90;73.70;;;12.81;100.00;95513.66;5009639;28;20275;-52
2022/10/22 03:20:43;;;;;;;;;;;16.90;73.70;;;12.79;100.00;95524.63;5032058;28;19912;-50
2022/10/22 03:23:20;;;;;;;;;;;16.90;73.70;;;12.82;100.00;95524.06;5022831;28;19946;-51
2022/10/22 03:25:48;;;;;;;;;;;16.90;73.70;;;12.82;100.00;95531.31;5032075;28;19913;-55
2022/10/22 03:28:17;;;;;;;;;;;16.90;73.70;;;12.78;100.00;95517.66;5009555;28;19943;-53
2022/10/22 03:30:43;;;;;;;;;;;16.90;73.60;;;12.77;100.00;95515.28;5006714;28;19908;-54
2022/10/22 03:33:08;;;;;;;;;;;16.90;73.60;;;12.75;100.00;95518.22;5031553;28;19908;-51
2022/10/22 03:35:46;;;;;;;;;;;16.90;73.50;;;12.73;100.00;95517.72;5027199;28;19915;-52
2022/10/22 03:38:13;;;;;;;;;;;16.90;73.50;;;12.71;100.00;95517.19;5014109;28;19952;-54
2022/10/22 03:40:43;;;;;;;;;;;16.90;73.50;;;12.68;100.00;95518.56;4970165;28;19983;-53
2022/10/22 03:43:12;;;;;;;;;;;16.80;73.50;;;12.69;100.00;95528.19;5014215;28;19909;-53
2022/10/22 03:45:38;;;;;;;;;;;16.80;73.50;;;12.68;100.00;95518.56;5013876;28;19916;-49
2022/10/22 03:48:22;;;;;;;;;;;16.80;73.50;;;12.67;100.00;95527.66;5020112;28;19909;-49
2022/10/22 03:50:50;;;;;;;;;;;16.80;73.50;;;12.67;100.00;95526.88;5013476;28;19934;-53
2022/10/22 03:53:28;;;;;;;;;;;16.80;73.60;;;12.66;100.00;95522.56;5028992;28;20375;-54
2022/10/22 03:55:56;;;;;;;;;;;16.80;73.60;;;12.58;100.00;95529.31;5025967;28;20007;-51
2022/10/22 03:58:28;;;;;;;;;;;16.80;73.60;;;12.62;100.00;95522.34;5018543;28;19916;-51
2022/10/22 04:00:54;;;;;;;;;;;16.80;73.60;;;12.63;100.00;95531.16;4994265;28;19956;-54
2022/10/22 04:03:23;;;;;;;;;;;16.70;73.60;;;12.61;100.00;95527.97;5024682;28;20003;-52
2022/10/22 04:06:03;;;;;;;;;;;16.70;73.60;;;12.60;100.00;95526.38;5014588;28;19916;-50
2022/10/22 04:08:29;;;;;;;;;;;16.70;73.60;;;12.59;100.00;95516.75;5031452;28;19908;-48
2022/10/22 04:11:01;;;;;;;;;;;16.70;73.60;;;12.55;100.00;95513.84;5020864;28;19913;-52
2022/10/22 04:13:26;;;;;;;;;;;16.80;73.70;;;12.56;100.00;95511.97;5009914;28;19909;-53
2022/10/22 04:15:53;;;;;;;;;;;16.70;73.60;;;12.52;100.00;95514.41;5012088;28;19961;-53
2022/10/22 04:18:24;;;;;;;;;;;16.70;73.60;;;12.52;100.00;95516.28;5010746;28;19978;-49
2022/10/22 04:20:59;;;;;;;;;;;16.70;73.60;;;12.51;100.00;95523.50;5013446;28;19916;-49
2022/10/22 04:23:25;;;;;;;;;;;16.70;74.40;;;12.52;100.00;95530.44;5021951;28;19909;-49
2022/10/22 04:26:04;;;;;;;;;;;16.70;73.70;;;12.54;100.00;95532.84;5031017;28;19920;-48
2022/10/22 04:28:30;;;;;;;;;;;16.70;73.70;;;12.53;100.00;95528.56;4991628;28;19909;-51
2022/10/22 04:30:58;;;;;;;;;;;16.70;73.70;;;12.53;100.00;95540.03;4991397;28;19955;-51
2022/10/22 04:33:27;;;;;;;;;;;16.70;73.70;;;12.53;100.00;95539.25;5012897;28;20468;-55
2022/10/22 04:35:55;;;;;;;;;;;16.70;73.70;;;12.54;100.00;95538.97;5026604;28;19916;-51
2022/10/22 04:38:23;;;;;;;;;;;16.70;73.70;;;12.55;100.00;95545.91;5031020;28;19948;-48
2022/10/22 04:40:48;;;;;;;;;;;16.70;73.70;;;12.55;100.00;95542.44;5023606;28;19913;-53
2022/10/22 04:43:17;;;;;;;;;;;16.80;73.70;;;12.55;100.00;95550.47;5030353;28;19935;-53
2022/10/22 04:45:43;;;;;;;;;;;16.80;73.70;;;12.54;100.00;95548.88;5030503;28;20341;-53
2022/10/22 04:48:24;;;;;;;;;;;16.80;73.60;;;12.54;100.00;95547.00;5020034;28;19958;-50
2022/10/22 04:50:50;;;;;;;;;;;16.80;73.60;;;12.55;100.00;95542.44;5012219;28;20341;-55
2022/10/22 04:53:15;;;;;;;;;;;16.80;73.60;;;12.54;100.00;95549.66;4972897;28;19913;-56
2022/10/22 04:55:41;;;;;;;;;;;16.80;73.50;;;12.52;100.00;95553.69;5022438;28;20355;-50
2022/10/22 04:58:09;;;;;;;;;;;16.80;74.30;;;12.51;100.00;95555.56;5017579;28;19917;-49
2022/10/22 05:00:37;;;;;;;;;;;16.70;73.50;;;12.52;100.00;95554.47;5019634;28;20505;-48
2022/10/22 05:03:17;;;;;;;;;;;16.80;73.50;;;12.48;100.00;95559.59;5022265;28;19913;-53
2022/10/22 05:05:46;;;;;;;;;;;16.80;73.50;;;12.47;100.00;95559.84;5020162;28;20386;-51
2022/10/22 05:08:12;;;;;;;;;;;16.70;73.50;;;12.52;100.00;95551.00;5012832;28;19908;-48
2022/10/22 05:10:40;;;;;;;;;;;16.70;73.60;;;12.51;100.00;95555.56;5005158;28;20260;-53
2022/10/22 05:13:06;;;;;;;;;;;16.70;73.60;;;12.48;100.00;95550.78;5023400;28;19986;-54
2022/10/22 05:15:38;;;;;;;;;;;16.70;73.60;;;12.47;100.00;95555.31;5012362;28;20379;-51
2022/10/22 05:18:04;;;;;;;;;;;16.70;73.60;;;12.45;100.00;95560.13;5007097;28;19909;-50
2022/10/22 05:20:39;;;;;;;;;;;16.70;73.50;;;12.43;100.00;95564.16;5028858;28;19908;-50
2022/10/22 05:23:08;;;;;;;;;;;16.70;73.50;;;12.43;100.00;95580.97;5017346;28;19913;-53
2022/10/22 05:25:38;;;;;;;;;;;16.70;73.50;;;12.39;100.00;95589.81;5012756;28;19909;-53
2022/10/22 05:28:09;;;;;;;;;;;16.70;73.50;;;12.40;100.00;95586.06;4992819;28;19915;-51
2022/10/22 05:30:37;;;;;;;;;;;16.70;73.60;;;12.41;100.00;95587.66;5020033;28;20323;-53
2022/10/22 05:33:03;;;;;;;;;;;16.70;73.60;;;12.37;100.00;95587.41;5029820;28;20030;-50
2022/10/22 05:35:29;;;;;;;;;;;16.70;73.60;;;12.36;100.00;95595.72;5025863;28;19995;-48
2022/10/22 05:37:59;;;;;;;;;;;16.60;73.60;;;12.36;100.00;95593.84;5030494;28;19909;-51
2022/10/22 05:40:28;;;;;;;;;;;16.60;73.60;;;12.37;100.00;95595.44;5024581;28;20050;-53
2022/10/22 05:42:53;;;;;;;;;;;16.60;73.70;;;12.39;100.00;95597.84;5026999;28;20423;-55
2022/10/22 05:45:19;;;;;;;;;;;16.60;73.70;;;12.38;100.00;95605.06;5012402;28;20011;-50
2022/10/22 05:47:48;;;;;;;;;;;16.60;73.70;;;12.33;100.00;95594.38;5017263;28;19917;-53
2022/10/22 05:50:16;;;;;;;;;;;16.60;73.70;;;12.33;100.00;95596.25;5030151;28;20039;-51
2022/10/22 05:52:42;;;;;;;;;;;16.60;73.70;;;12.33;100.00;95607.75;5008452;28;19912;-51
2022/10/22 05:55:14;;;;;;;;;;;16.60;73.70;;;12.34;100.00;95604.00;5030177;28;19909;-52
2022/10/22 05:57:48;;;;;;;;;;;16.60;73.70;;;12.33;100.00;95599.72;4999267;28;19917;-51
2022/10/22 06:00:15;;;;;;;;;;;16.60;73.60;;;12.26;100.00;95608.03;5015687;28;20345;-50
2022/10/22 06:02:50;;;;;;;;;;;16.60;73.60;;;12.27;100.00;95617.66;5023037;28;20003;-55
2022/10/22 06:05:19;;;;;;;;;;;16.60;73.60;;;12.27;100.00;95616.84;5023923;28;19909;-48
2022/10/22 06:07:50;;;;;;;;;;;16.50;73.50;;;12.25;100.00;95618.97;5033896;28;19913;-53
2022/10/22 06:10:20;;;;;;;;;;;16.60;73.60;;;12.23;100.00;95632.63;5028423;28;19921;-57
2022/10/22 06:12:49;;;;;;;;;;;16.60;73.60;;;12.21;100.00;95616.06;5007178;28;20456;-52
2022/10/22 06:15:20;;;;;;;;;;;16.60;73.50;;;12.19;100.00;95618.22;5033602;28;20020;-49
2022/10/22 06:17:47;;;;;;;;;;;16.50;73.50;;;12.20;100.00;95616.34;5011726;28;19915;-49
2022/10/22 06:20:13;;;;;;;;;;;16.60;73.50;;;12.22;100.00;95611.53;5033424;28;19909;-53
2022/10/22 06:22:39;;;;;;;;;;;16.50;73.50;;;12.18;100.00;95616.63;5021015;28;20012;-55
2022/10/22 06:25:13;;;;;;;;;;;16.60;73.50;;;12.20;100.00;95611.00;5030393;28;19994;-51
2022/10/22 06:27:41;;;;;;;;;;;16.50;73.40;;;12.17;100.00;95604.34;5033243;28;19908;-53
2022/10/22 06:30:13;;;;;;;;;;;16.50;73.40;;;12.15;100.00;95593.13;5020941;28;20290;-49
2022/10/22 06:32:38;;;;;;;;;;;16.50;73.40;;;12.08;100.00;95592.63;5015141;28;19974;-50
2022/10/22 06:35:07;;;;;;;;;;;16.50;73.50;;;12.11;100.00;95600.09;5007906;28;20371;-51
2022/10/22 06:37:33;;;;;;;;;;;16.50;73.50;;;12.11;100.00;95607.31;5027730;28;19913;-50
2022/10/22 06:39:59;;;;;;;;;;;16.50;73.60;;;12.16;100.00;95620.63;5013752;28;19909;-50
2022/10/22 06:42:24;;;;;;;;;;;16.50;73.60;;;12.18;100.00;95634.50;5004409;28;19917;-51
2022/10/22 06:44:50;;;;;;;;;;;16.50;73.60;;;12.18;100.00;95643.31;5018476;28;19977;-50
2022/10/22 06:47:16;;;;;;;;;;;16.50;73.60;;;12.16;100.00;95653.50;5000230;28;19909;-51
2022/10/22 06:49:48;;;;;;;;;;;16.50;73.50;;;12.19;100.00;95671.63;5022273;28;19948;-53
2022/10/22 06:52:17;;;;;;;;;;;16.50;73.50;;;12.20;100.00;95675.91;5001711;28;19917;-49
2022/10/22 06:55:01;;;;;;;;;;;16.60;73.60;;;12.23;100.00;95672.69;5019319;28;19936;-52
2022/10/22 06:57:28;;;;;;;;;;;16.60;73.50;;;12.25;100.00;95667.88;4994574;28;20359;-53
2022/10/22 06:59:54;;;;;;;;;;;16.70;73.50;;;12.28;100.00;95669.19;5016495;28;19948;-56
2022/10/22 07:02:19;;;;;;;;;;;16.70;73.40;;;12.33;100.00;95681.75;5003350;28;19955;-55
2022/10/22 07:04:48;;;;;;;;;;;16.80;73.30;;;12.30;100.00;95687.63;5024332;28;19917;-56
2022/10/22 07:07:14;;;;;;;;;;;16.80;73.20;;;12.30;100.00;95690.28;5018087;28;20327;-54
2022/10/22 07:09:40;;;;;;;;;;;16.80;73.30;;;12.30;100.00;95690.28;5028989;28;19920;-49
2022/10/22 07:12:15;;;;;;;;;;;16.90;73.30;;;12.37;100.00;95701.47;5008436;28;19962;-50
2022/10/22 07:14:42;;;;;;;;;;;16.80;73.30;;;12.42;100.00;95702.25;5013313;28;19958;-52
2022/10/22 07:17:08;;;;;;;;;;;16.90;73.40;;;12.49;100.00;95697.41;4998551;28;19913;-51
2022/10/22 07:19:37;;;;;;;;;;;16.90;73.30;;;12.45;100.00;95693.72;5014862;28;19916;-53
2022/10/22 07:22:03;;;;;;;;;;;17.00;73.40;;;12.49;100.00;95699.31;5029896;28;19921;-57
2022/10/22 07:24:31;;;;;;;;;;;17.00;73.30;;;12.52;100.00;95706.78;5020607;28;19915;-52
2022/10/22 07:26:57;;;;;;;;;;;17.10;73.30;;;12.61;100.00;95704.34;5031891;28;19913;-52
2022/10/22 07:29:29;;;;;;;;;;;17.20;73.20;;;12.64;100.00;95703.78;5008998;28;19915;-49
2022/10/22 07:32:03;;;;;;;;;;;17.20;73.10;;;12.73;100.00;95702.16;5029833;28;20134;-51
2022/10/22 07:34:32;;;;;;;;;;;17.30;73.00;;;12.84;100.00;95702.88;5010366;28;20337;-51
2022/10/22 07:36:58;;;;;;;;;;;17.40;72.90;;;12.93;100.00;95701.22;4990226;28;19914;-51
2022/10/22 07:39:27;;;;;;;;;;;17.50;72.90;;;13.03;100.00;95706.50;5014132;28;20229;-50
2022/10/22 07:41:56;;;;;;;;;;;17.60;72.80;;;13.12;100.00;95704.84;5002401;28;20401;-51
2022/10/22 07:44:22;;;;;;;;;;;17.70;72.70;;;13.17;100.00;95710.19;5032083;28;20011;-50
2022/10/22 07:46:47;;;;;;;;;;;17.80;72.60;;;13.27;100.00;95713.91;5029141;28;20007;-51
2022/10/22 07:49:31;;;;;;;;;;;18.00;72.50;;;13.36;100.00;95710.34;5013992;28;20074;-48
2022/10/22 07:51:59;;;;;;;;;;;18.10;72.40;;;13.43;100.00;95710.03;5013476;28;19915;-55
2022/10/22 07:54:25;;;;;;;;;;;18.30;72.20;;;13.66;100.00;95721.88;5027127;28;19913;-51
2022/10/22 07:56:54;;;;;;;;;;;18.60;72.10;;;13.81;100.00;95721.75;5031368;28;19927;-52
2022/10/22 07:59:20;;;;;;;;;;;18.80;71.90;;;14.08;100.00;95734.63;5019684;28;20345;-51
2022/10/22 08:01:48;;;;;;;;;;;19.10;71.70;;;14.35;100.00;95728.75;5019547;28;19917;-52
2022/10/22 08:04:23;;;;;;;;;;;19.40;71.50;;;14.63;100.00;95730.88;5010134;28;19913;-49
2022/10/22 08:06:49;;;;;;;;;;;19.80;71.30;;;14.77;98.29;95729.88;5017903;28;19909;-54
2022/10/22 08:09:23;;;;;;;;;;;20.10;71.10;;;14.93;95.95;95724.34;5013609;28;19970;-52
2022/10/22 08:11:53;;;;;;;;;;;20.30;70.80;;;15.29;95.74;95730.00;5016566;28;19909;-51
2022/10/22 08:14:24;;;;;;;;;;;20.60;70.40;;;15.62;92.43;95730.84;5023117;28;19944;-51
2022/10/22 08:16:53;;;;;;;;;;;21.10;70.20;;;15.95;90.79;95726.31;5022201;28;20551;-49
2022/10/22 08:19:20;;;;;;;;;;;21.60;69.80;;;16.28;88.45;95730.84;5013727;28;19909;-50
2022/10/22 08:21:54;;;;;;;;;;;21.90;69.40;;;16.56;86.50;95734.34;5031012;28;19928;-56
2022/10/22 08:24:23;;;;;;;;;;;22.20;69.00;;;16.64;85.36;95739.84;5022127;28;20516;-49
2022/10/22 08:26:54;;;;;;;;;;;22.30;68.70;;;16.72;85.03;95737.53;5012552;28;20074;-53
2022/10/22 08:29:22;;;;;;;;;;;22.30;68.50;;;16.76;85.22;95736.66;4992514;28;19917;-50
2022/10/22 08:31:52;;;;;;;;;;;22.20;68.20;;;16.80;85.04;95747.66;5029460;28;19915;-48
2022/10/22 08:34:18;;;;;;;;;;;22.20;68.00;;;16.69;84.76;95743.53;5009497;28;19924;-49
2022/10/22 08:36:44;;;;;;;;;;;22.10;67.80;;;16.63;85.19;95735.53;5029515;28;19942;-50
2022/10/22 08:39:16;;;;;;;;;;;22.10;67.60;;;16.58;84.75;95745.63;5030901;28;20432;-48
2022/10/22 08:42:20;;;;;;;;;;;22.00;67.50;;;16.66;84.54;95739.53;5000184;28;19959;-51
2022/10/22 08:45:21;;;;;;;;;;;22.10;67.20;;;16.83;84.37;95744.34;5000394;28;20339;-48
2022/10/22 08:48:31;;;;;;;;;;;22.30;67.10;;;17.03;84.24;95741.22;4987865;28;19908;-52
2022/10/22 08:50:57;;;;;;;;;;;22.60;66.90;;;17.25;82.17;95742.38;5029274;28;19909;-54
2022/10/22 08:53:42;;;;;;;;;;;22.90;66.70;;;17.46;81.99;95748.13;5009894;28;19979;-55
2022/10/22 08:56:35;;;;;;;;;;;23.10;66.40;;;17.60;77.89;95751.56;5030271;28;21120;-49
2022/10/22 08:59:18;;;;;;;;;;;23.40;66.10;;;17.88;77.83;95749.56;5024123;28;19943;-52
2022/10/22 09:01:50;;;;;;;;;;;23.70;65.60;;;18.19;76.27;95752.31;5005356;28;19959;-50
2022/10/22 09:04:56;;;;;;;;;;;24.10;65.30;;;18.54;71.85;95757.88;5009436;28;19912;-55
2022/10/22 09:07:22;;;;;;;;;;;24.60;64.80;;;18.86;71.35;95751.34;4993749;28;20406;-54
2022/10/22 09:09:54;;;;;;;;;;;25.10;64.20;;;19.13;68.29;95754.91;5006550;28;19913;-52
2022/10/22 09:12:26;;;;;;;;;;;25.50;63.90;;;19.44;68.55;95749.41;5017450;28;19908;-51
2022/10/22 09:15:12;;;;;;;;;;;25.90;63.40;;;19.78;68.19;95759.44;4996403;28;19909;-52
2022/10/22 09:18:03;;;;;;;;;;;26.30;62.90;;;19.63;67.09;95755.28;5026501;28;19962;-54
2022/10/22 09:20:44;;;;;;;;;;;26.40;62.00;;;19.75;67.34;95760.09;5012494;28;19952;-52
2022/10/22 09:23:50;;;;;;;;;;;26.60;61.40;;;20.17;66.20;95762.25;5022683;28;19948;-55
2022/10/22 09:26:19;;;;;;;;;;;26.90;61.00;;;20.44;64.31;95764.59;4998270;28;20015;-56
2022/10/22 09:28:50;;;;;;;;;;;27.20;60.60;;;20.51;64.78;95770.31;5005761;28;19920;-51
2022/10/22 09:31:18;;;;;;;;;;;27.50;59.70;;;20.71;61.29;95770.72;4979214;28;20350;-54
2022/10/22 09:33:50;;;;;;;;;;;27.60;59.30;;;20.40;61.52;95770.94;5030605;28;19912;-53
2022/10/22 09:36:21;;;;;;;;;;;27.70;58.40;;;20.46;62.41;95767.75;4992484;28;19916;-52
2022/10/22 09:38:52;;;;;;;;;;;27.90;58.00;;;20.57;62.93;95776.34;5017066;28;19909;-54
2022/10/22 09:41:22;;;;;;;;;;;28.00;58.30;;;20.73;63.11;95777.41;5027581;28;19913;-54
2022/10/22 09:43:51;;;;;;;;;;;28.10;57.40;;;20.68;61.53;95768.66;5016819;28;19916;-55
2022/10/22 09:46:28;;;;;;;;;;;28.10;57.10;;;20.96;60.70;95772.50;5013223;28;19978;-54
2022/10/22 09:49:10;;;;;;;;;;;28.20;57.10;;;21.06;61.08;95771.38;4995259;28;19913;-54
2022/10/22 09:52:00;;;;;;;;;;;28.30;56.80;;;21.43;60.07;95768.94;5017114;28;19918;-55
2022/10/22 09:54:40;;;;;;;;;;;28.60;57.00;;;21.50;59.47;95771.94;4986872;28;19920;-53
2022/10/22 09:57:20;;;;;;;;;;;28.90;57.00;;;21.51;59.55;95775.44;5012149;28;26899;-53
2022/10/22 09:59:50;;;;;;;;;;;28.90;56.70;;;21.54;58.87;95777.47;5017127;28;20378;-53
2022/10/22 10:02:29;;;;;;;;;;;28.90;55.80;;;21.80;56.91;95775.34;5012642;28;20394;-56
2022/10/22 10:05:03;;;;;;;;;;;29.20;55.90;;;21.81;56.78;95776.97;5004852;28;19913;-55
2022/10/22 10:07:35;;;;;;;;;;;29.00;55.70;;;21.62;57.29;95782.03;4989299;28;19909;-51
2022/10/22 10:10:01;;;;;;;;;;;28.70;55.90;;;21.62;58.74;95784.75;5007305;28;20007;-55
2022/10/22 10:12:42;;;;;;;;;;;28.80;55.60;;;21.42;58.96;95784.41;4995360;28;20011;-51
2022/10/22 10:16:03;;;;;;;;;;;29.00;55.40;;;21.51;58.70;95784.34;5013492;28;19975;-52
2022/10/22 10:18:53;;;;;;;;;;;29.00;55.20;;;21.74;57.63;95781.31;5009409;28;19966;-52
2022/10/22 10:22:26;;;;;;;;;;;29.20;54.80;;;22.37;59.62;95787.47;5013573;28;19938;-53
2022/10/22 10:25:34;;;;;;;;;;;29.70;54.70;;;22.46;56.23;95790.88;5006762;28;20278;-51
2022/10/22 10:28:35;;;;;;;;;;;30.10;54.10;;;22.72;56.15;95789.78;5028821;28;19909;-55
2022/10/22 10:31:18;;;;;;;;;;;30.10;53.80;;;22.75;54.58;95781.78;5002090;28;19909;-57
2022/10/22 10:34:38;;;;;;;;;;;30.50;53.80;;;22.59;55.39;95788.97;5028568;28;19942;-53
2022/10/22 10:37:29;;;;;;;;;;;30.40;53.70;;;22.31;55.18;95791.50;4990166;28;19967;-53
2022/10/22 10:40:37;;;;;;;;;;;29.90;53.60;;;22.14;54.75;95795.16;5013312;28;19919;-52
2022/10/22 10:43:46;;;;;;;;;;;29.50;53.60;;;21.91;55.90;95787.38;4985232;28;19913;-51
2022/10/22 10:46:45;;;;;;;;;;;29.20;53.80;;;21.92;56.15;95778.13;5005453;28;20004;-53
2022/10/22 10:49:32;;;;;;;;;;;28.90;53.80;;;22.20;57.12;95783.00;5010204;28;19909;-51
2022/10/22 10:52:31;;;;;;;;;;;29.20;53.80;;;22.55;56.50;95788.88;5011484;28;19909;-53
2022/10/22 10:55:28;;;;;;;;;;;29.70;53.60;;;22.62;52.87;95791.03;5003781;28;19920;-53
2022/10/22 10:58:29;;;;;;;;;;;30.10;53.20;;;22.28;54.50;95792.19;5000472;28;20119;-56
2022/10/22 11:01:08;;;;;;;;;;;30.30;52.80;;;21.88;55.35;95790.75;4994226;28;20411;-52
2022/10/22 11:03:53;;;;;;;;;;;30.10;52.50;;;22.17;55.48;95792.59;5028109;28;20180;-52
2022/10/22 11:06:25;;;;;;;;;;;30.20;52.40;;;22.54;54.89;95783.78;4999018;28;20000;-53
2022/10/22 11:09:06;;;;;;;;;;;30.40;51.90;;;22.89;53.22;95786.09;4997712;28;19913;-51
2022/10/22 11:12:17;;;;;;;;;;;30.70;51.50;;;23.05;51.80;95782.38;5011678;28;19913;-52
2022/10/22 11:15:26;;;;;;;;;;;30.90;51.60;;;22.96;51.53;95776.28;5027562;28;19909;-57
2022/10/22 11:18:21;;;;;;;;;;;30.50;51.60;;;22.86;52.12;95782.13;5009953;28;20037;-56
2022/10/22 11:21:01;;;;;;;;;;;30.20;51.50;;;22.44;53.75;95771.44;5013913;28;19913;-54
2022/10/22 11:23:42;;;;;;;;;;;30.00;51.50;;;22.10;54.96;95777.97;5005741;28;20019;-52
2022/10/22 11:26:23;;;;;;;;;;;30.00;51.40;;;21.77;54.81;95773.31;5011011;28;19913;-51
2022/10/22 11:28:59;;;;;;;;;;;29.80;51.30;;;21.58;55.56;95770.28;5021308;28;20315;-53
2022/10/22 11:31:26;;;;;;;;;;;29.70;51.20;;;21.52;56.76;95777.78;5009005;28;20414;-55
2022/10/22 11:34:17;;;;;;;;;;;29.70;51.00;;;21.66;53.98;95772.91;5027800;28;19940;-52
2022/10/22 11:36:48;;;;;;;;;;;29.50;51.00;;;22.14;56.57;95773.47;5011206;28;19909;-52
2022/10/22 11:39:58;;;;;;;;;;;29.80;50.90;;;22.69;52.81;95766.84;5011533;28;20262;-51
2022/10/22 11:42:48;;;;;;;;;;;30.20;50.90;;;22.81;52.39;95761.44;5009549;28;19919;-53
2022/10/22 11:45:14;;;;;;;;;;;30.70;51.30;;;22.92;52.09;95766.41;5011041;28;20417;-54
2022/10/22 11:48:10;;;;;;;;;;;31.10;50.30;;;22.65;50.88;95757.78;5001540;28;19913;-54
2022/10/22 11:50:48;;;;;;;;;;;31.30;49.50;;;23.17;49.35;95754.44;5026456;28;19956;-54